Brady, NE (69123)

8:38 PM CST on February 01, 2015 (GMT -0600)
APRSWXNET Brady NE US | Change Station
CLOSE
Current Station
Personal Weather Station
Location: Brady, NE
Elevation: 2588 ft
Nearby Weather Stations

Elev 2588 ft 41.02 °N, 100.37 °W | Updated 45 minutes ago

Partly Cloudy
Partly Cloudy
4 °F
Feels Like 4 °F
N
2
Wind Variable Wind from SW
Gusts 7.0 mph

Today
High -- | Low -- °F
--% Chance of Precip.
Yesterday
High -- | Low -- °F
Precip. -- in
7:52 AM 5:58 PM
Waxing Gibbous, 97% visible
Pressure 30.49 in
Visibility 10.0 miles
Clouds Clear
Windchill 4 °F
Dew Point -1 °F
Humidity 78%
Rainfall 0.00 in
Snow Depth Not available.
UV 0 out of 12
Pollen .10 out of 12
Air Quality Not available.
Flu Activity Not available.
METAR KLBF 020153Z AUTO 00000KT 10SM CLR M18/M20 A3030 RMK AO2 SLP323 T11781200 $

More Conditions Fewer Conditions

Pressure 30.49 in
Visibility 10.0 miles
Clouds Clear
Windchill 4 °F
Dew Point -1 °F
Humidity 78%
Rainfall 0.00 in
Snow Depth Not available.
UV 0 out of 12
Pollen .10 out of 12
Air Quality Not available.
Flu Activity Not available.
METAR KLBF 020153Z AUTO 00000KT 10SM CLR M18/M20 A3030 RMK AO2 SLP323 T11781200 $

More Conditions Fewer Conditions

10-Day Weather Forecast

Almanac

Astronomy

Feb. 01, 2015 Rise Set
Actual Time
Civil Twilight
Nautical Twilight
Astronomical Twilight
Moon
Length of Visible Light
Length of Day
Tomorrow will be .
, % of the Moon is Illuminated

Today's Extremes

State Highs State Lows

Community

WunderPhotos

Upload Photos

1,792,659 photos uploaded!

WunderBlogs® & News

Nearby

Air Quality

  Air Quality AQ Index Pollutant
Not available.

Snow Depth

Station Depth Elevation

Earthquake Activity

City Distance Mag. Time & Date
Minimum magnitude displayed is 2.5.

Coastal Water Temperatures

Place Temperature

Nearby Weather Stations